createdAt,value
2023-05-03T00:03:00.173Z,1.29
2023-05-03T00:08:07.490Z,1.16
2023-05-03T00:13:14.885Z,1.32
2023-05-03T00:18:22.432Z,1.25
2023-05-03T00:23:29.816Z,1.38
2023-05-03T00:28:37.348Z,1.29
2023-05-03T00:33:45.449Z,1.08
2023-05-03T00:38:52.982Z,1.30
2023-05-03T00:44:01.068Z,1.27
2023-05-03T00:49:08.698Z,1.23
2023-05-03T00:54:16.482Z,1.35
2023-05-03T00:59:24.030Z,1.13
2023-05-03T01:04:31.528Z,1.40
2023-05-03T01:09:39.165Z,1.29
2023-05-03T01:14:46.825Z,1.24
2023-05-03T01:19:54.444Z,1.34
2023-05-03T01:25:02.600Z,1.26
2023-05-03T01:30:10.084Z,1.34
2023-05-03T01:35:18.079Z,1.27
2023-05-03T01:40:25.701Z,1.38
2023-05-03T01:45:33.606Z,1.25
2023-05-03T01:50:41.265Z,1.42
2023-05-03T01:55:48.791Z,1.19
2023-05-03T02:00:56.568Z,1.39
2023-05-03T02:06:04.156Z,1.19
2023-05-03T02:11:11.651Z,1.25
2023-05-03T02:16:19.281Z,1.24
2023-05-03T02:21:26.691Z,1.28
2023-05-03T02:26:34.365Z,1.34
2023-05-03T02:31:41.796Z,1.26
2023-05-03T02:36:49.678Z,1.18
2023-05-03T02:41:57.805Z,1.28
2023-05-03T02:47:05.753Z,1.27
2023-05-03T02:52:13.253Z,1.32
2023-05-03T02:57:21.218Z,1.35
2023-05-03T03:02:28.683Z,1.29
2023-05-03T03:07:36.301Z,1.11
2023-05-03T03:12:43.668Z,1.26
2023-05-03T03:17:51.627Z,1.23
2023-05-03T03:22:59.224Z,1.22
2023-05-03T03:28:06.911Z,1.20
2023-05-03T03:33:14.441Z,1.30
2023-05-03T03:38:22.251Z,1.36
2023-05-03T03:43:29.844Z,1.31
2023-05-03T03:48:37.615Z,1.22
2023-05-03T03:53:45.174Z,1.21
2023-05-03T03:58:52.849Z,1.35
2023-05-03T04:04:00.575Z,1.29
2023-05-03T04:09:08.105Z,1.20
2023-05-03T04:14:15.792Z,1.26
2023-05-03T04:19:23.703Z,1.28
2023-05-03T04:24:31.295Z,1.25
2023-05-03T04:29:38.801Z,1.25
2023-05-03T04:34:48.480Z,1.24
2023-05-03T04:39:53.378Z,1.37
2023-05-03T04:45:01.026Z,1.21
2023-05-03T04:50:09.079Z,1.29
2023-05-03T04:55:16.803Z,1.34
2023-05-03T05:00:25.329Z,1.36
2023-05-03T05:05:33.112Z,1.47
2023-05-03T05:10:41.031Z,1.32
2023-05-03T05:15:48.412Z,1.29
2023-05-03T05:20:56.289Z,1.28
2023-05-03T05:26:03.975Z,1.35
2023-05-03T05:31:11.943Z,1.36
2023-05-03T05:36:19.626Z,1.37
2023-05-03T05:41:27.441Z,2.43
2023-05-03T05:46:34.874Z,3.67
2023-05-03T05:51:42.607Z,4.09
2023-05-03T05:56:50.014Z,4.08
2023-05-03T06:01:57.636Z,4.14
2023-05-03T06:07:05.204Z,4.63
2023-05-03T06:12:12.766Z,4.24
2023-05-03T06:17:20.472Z,3.79
2023-05-03T06:22:28.068Z,3.48
2023-05-03T06:27:35.448Z,3.69
2023-05-03T06:32:43.144Z,3.29
2023-05-03T06:37:51.278Z,3.15
2023-05-03T06:42:58.751Z,3.04
2023-05-03T06:48:06.429Z,2.95
2023-05-03T06:53:14.903Z,2.85
2023-05-03T06:58:22.550Z,2.87
2023-05-03T07:03:30.563Z,2.67
2023-05-03T07:08:38.071Z,2.67
2023-05-03T07:13:45.691Z,2.56
2023-05-03T07:18:53.532Z,2.49
2023-05-03T07:24:02.243Z,2.42
2023-05-03T07:29:09.623Z,2.71
2023-05-03T07:34:17.574Z,2.27
2023-05-03T07:39:25.385Z,2.10
2023-05-03T07:44:33.329Z,2.15
2023-05-03T07:49:40.722Z,2.16
2023-05-03T07:54:48.619Z,2.22
2023-05-03T07:59:56.112Z,2.25
2023-05-03T08:05:03.874Z,2.06
2023-05-03T08:10:11.160Z,2.18
2023-05-03T08:15:19.545Z,2.17
2023-05-03T08:20:26.924Z,2.15
2023-05-03T08:25:34.561Z,1.95
2023-05-03T08:30:42.303Z,2.18
2023-05-03T08:35:50.713Z,2.06
2023-05-03T08:40:58.674Z,1.82
2023-05-03T08:46:06.799Z,1.90
2023-05-03T08:51:15.685Z,2.12
2023-05-03T08:56:23.398Z,1.77
2023-05-03T09:01:31.035Z,1.77
2023-05-03T09:06:38.611Z,1.82
2023-05-03T09:11:46.341Z,1.83
2023-05-03T09:16:54.489Z,1.81
2023-05-03T09:22:02.413Z,1.63
2023-05-03T09:27:10.014Z,1.89
2023-05-03T09:32:17.470Z,1.73
2023-05-03T09:37:24.952Z,2.00
2023-05-03T09:42:32.811Z,1.99
2023-05-03T09:47:40.849Z,2.01
2023-05-03T09:52:48.619Z,2.03
2023-05-03T09:57:56.428Z,1.90
2023-05-03T10:03:04.134Z,2.07
2023-05-03T10:08:12.089Z,1.84
2023-05-03T10:13:19.719Z,2.11
2023-05-03T10:18:27.593Z,2.00
2023-05-03T10:23:35.693Z,1.95
2023-05-03T10:28:43.222Z,1.87
2023-05-03T10:33:50.618Z,1.88
2023-05-03T10:38:58.415Z,1.98
2023-05-03T10:44:05.878Z,1.96
2023-05-03T10:49:13.629Z,1.82
2023-05-03T10:54:21.140Z,1.96
2023-05-03T10:59:29.612Z,1.93
2023-05-03T11:04:37.311Z,1.75
2023-05-03T11:09:47.584Z,1.81
2023-05-03T11:14:52.539Z,1.75
2023-05-03T11:20:00.125Z,1.85
2023-05-03T11:25:07.735Z,1.86
2023-05-03T11:30:15.702Z,1.72
2023-05-03T11:35:23.393Z,1.73
2023-05-03T11:40:30.953Z,1.61
2023-05-03T11:45:39.696Z,1.58
2023-05-03T11:50:49.272Z,1.68
2023-05-03T11:55:56.930Z,1.57
2023-05-03T12:01:04.521Z,1.59
2023-05-03T12:06:12.190Z,1.55
2023-05-03T12:11:21.349Z,1.60
2023-05-03T12:16:28.063Z,1.51
2023-05-03T12:21:36.683Z,1.70
2023-05-03T12:26:43.688Z,1.73
2023-05-03T12:31:51.136Z,1.64
2023-05-03T12:36:59.347Z,1.76
2023-05-03T12:42:07.972Z,1.56
2023-05-03T12:47:20.383Z,1.60
2023-05-03T12:52:37.354Z,1.52
2023-05-03T13:03:19.768Z,1.68
2023-05-03T13:07:46.165Z,1.54
2023-05-03T13:12:53.440Z,1.44
2023-05-03T13:18:01.078Z,1.62
2023-05-03T13:23:10.048Z,1.68
2023-05-03T13:28:17.681Z,1.57
2023-05-03T13:33:25.771Z,1.74
2023-05-03T13:38:28.999Z,1.61
2023-05-03T13:43:36.919Z,1.52
2023-05-03T13:48:44.374Z,1.54
2023-05-03T13:53:51.838Z,1.63
2023-05-03T13:58:59.458Z,1.53
2023-05-03T14:04:07.082Z,1.48
2023-05-03T14:09:14.372Z,1.56
2023-05-03T14:14:22.065Z,1.41
2023-05-03T14:19:29.462Z,1.71
2023-05-03T14:24:36.998Z,1.56
2023-05-03T14:29:44.690Z,1.58
2023-05-03T14:34:52.949Z,1.57
2023-05-03T14:40:00.878Z,1.69
2023-05-03T14:45:10.996Z,1.60
2023-05-03T14:50:16.386Z,1.52
2023-05-03T14:55:24.060Z,1.63
2023-05-03T15:00:31.696Z,1.66
2023-05-03T15:05:39.307Z,1.57
2023-05-03T15:10:46.899Z,1.64
2023-05-03T15:15:54.372Z,1.60
2023-05-03T15:21:01.960Z,1.68
2023-05-03T15:26:09.488Z,1.74
2023-05-03T15:31:17.182Z,1.65
2023-05-03T15:36:24.941Z,1.59
2023-05-03T15:41:32.543Z,1.77
2023-05-03T15:46:42.677Z,1.51
2023-05-03T15:51:47.574Z,1.62
2023-05-03T15:56:55.039Z,1.68
2023-05-03T16:02:02.511Z,1.69
2023-05-03T16:07:10.268Z,1.55
2023-05-03T16:12:17.867Z,1.73
2023-05-03T16:17:26.993Z,1.46
2023-05-03T16:22:34.429Z,1.61
2023-05-03T16:27:42.149Z,1.59
2023-05-03T16:32:49.924Z,1.66
2023-05-03T16:37:57.649Z,1.64
2023-05-03T16:43:05.145Z,1.61
2023-05-03T16:48:12.903Z,1.69
2023-05-03T16:53:20.226Z,1.74
2023-05-03T16:58:28.738Z,1.65
2023-05-03T17:03:36.706Z,1.77
2023-05-03T17:08:44.502Z,1.58
2023-05-03T17:13:52.086Z,1.66
2023-05-03T17:18:59.913Z,1.58
2023-05-03T17:24:07.561Z,1.74
2023-05-03T17:29:15.298Z,1.84
2023-05-03T17:34:23.087Z,1.73
2023-05-03T17:39:31.571Z,1.66
2023-05-03T17:44:38.969Z,1.63
2023-05-03T17:49:46.875Z,1.56
2023-05-03T17:54:55.063Z,1.67
2023-05-03T18:00:02.892Z,1.62
2023-05-03T18:05:10.355Z,1.66
2023-05-03T18:10:17.810Z,1.72
2023-05-03T18:15:25.476Z,1.62
2023-05-03T18:20:33.204Z,1.57
2023-05-03T18:25:40.817Z,1.66
2023-05-03T18:30:48.987Z,1.60
2023-05-03T18:35:56.581Z,1.64
2023-05-03T18:41:04.880Z,1.75
2023-05-03T18:46:12.607Z,1.76
2023-05-03T18:51:20.433Z,1.57
2023-05-03T18:56:27.812Z,1.73
2023-05-03T19:01:36.127Z,1.59
2023-05-03T19:06:43.845Z,1.62
2023-05-03T19:11:51.737Z,1.84
2023-05-03T19:16:59.323Z,1.75
2023-05-03T19:22:07.109Z,1.77
2023-05-03T19:27:14.852Z,1.92
2023-05-03T19:32:22.694Z,1.80
2023-05-03T19:37:30.060Z,1.85
2023-05-03T19:42:37.782Z,1.98
2023-05-03T19:47:45.210Z,1.94
2023-05-03T19:52:53.218Z,1.87
2023-05-03T19:58:01.295Z,2.17
2023-05-03T20:03:09.001Z,2.12
2023-05-03T20:08:16.640Z,2.02
2023-05-03T20:13:24.750Z,1.95
2023-05-03T20:18:32.494Z,2.08
2023-05-03T20:23:40.312Z,2.12
2023-05-03T20:28:48.024Z,1.99
2023-05-03T20:33:55.857Z,2.02
2023-05-03T20:39:03.366Z,2.09
2023-05-03T20:44:10.778Z,2.07
2023-05-03T20:49:18.381Z,2.13
2023-05-03T20:54:26.179Z,1.97
2023-05-03T20:59:33.759Z,2.01
2023-05-03T21:04:41.774Z,2.12
2023-05-03T21:09:49.284Z,2.06
2023-05-03T21:14:57.420Z,2.11
2023-05-03T21:20:05.235Z,2.03
2023-05-03T21:25:12.925Z,2.03
2023-05-03T21:30:21.097Z,2.11
2023-05-03T21:35:29.008Z,1.97
2023-05-03T21:40:36.677Z,1.93
2023-05-03T21:45:44.914Z,2.22
2023-05-03T21:50:52.377Z,2.09
2023-05-03T21:56:00.252Z,1.99
2023-05-03T22:01:08.216Z,1.90
2023-05-03T22:06:15.996Z,2.04
2023-05-03T22:11:23.699Z,2.01
2023-05-03T22:16:31.569Z,2.03
2023-05-03T22:21:39.056Z,2.14
2023-05-03T22:26:46.716Z,1.94
2023-05-03T22:31:54.348Z,2.07
2023-05-03T22:37:02.252Z,1.96
2023-05-03T22:42:10.066Z,1.93
2023-05-03T22:47:17.990Z,2.04
2023-05-03T22:52:25.394Z,2.09
2023-05-03T22:57:33.057Z,1.93
2023-05-03T23:02:40.738Z,2.10
2023-05-03T23:07:48.319Z,1.96
2023-05-03T23:12:55.731Z,2.14
2023-05-03T23:18:03.535Z,2.09
2023-05-03T23:23:10.964Z,1.95
2023-05-03T23:28:19.331Z,1.92
2023-05-03T23:33:26.791Z,2.02
2023-05-03T23:38:34.302Z,1.86
2023-05-03T23:43:41.868Z,1.97
2023-05-03T23:48:49.637Z,1.98
2023-05-03T23:53:57.326Z,1.97
2023-05-03T23:59:04.885Z,1.85
